Time;durP1;ratioP1;P1;durP2;ratioP2;P2;SDS_P1;SDS_P2;PMS_P1;PMS_P2;Temp;Humidity;BMP_temperature;BMP_pressure;BME280_temperature;BME280_humidity;BME280_pressure;Samples;Min_cycle;Max_cycle;Signal;HPM_P1;HPM_P2
2022/07/15 00:00:54;;;;;;;;;;;;;;;23.77;41.39;95920.22;10524405;28;1788;-73
2022/07/15 00:05:54;;;;;;;;;;;;;;;23.73;41.52;95916.56;10524242;28;1928;-72
2022/07/15 00:10:55;;;;;;;;;;;;;;;23.74;41.31;95912.84;10516588;28;1777;-73
2022/07/15 00:15:56;;;;;;;;;;;;;;;23.68;41.08;95900.00;10522022;28;1840;-73
2022/07/15 00:20:56;;;;;;;;;;;;;;;23.61;41.19;95910.94;10529701;28;1772;-74
2022/07/15 00:25:57;;;;;;;;;;;;;;;23.53;40.67;95916.09;10523116;28;1974;-73
2022/07/15 00:30:58;;;;;;;;;;;;;;;23.42;41.15;95902.25;10501461;28;1957;-74
2022/07/15 00:35:59;;;;;;;;;;;;;;;23.40;41.25;95909.69;10511280;28;1852;-74
2022/07/15 00:40:59;;;;;;;;;;;;;;;23.39;41.50;95911.53;10528980;28;2271;-74
2022/07/15 00:46:00;;;;;;;;;;;;;;;23.30;41.23;95899.22;10535635;28;1945;-74
2022/07/15 00:51:00;;;;;;;;;;;;;;;23.18;41.25;95897.03;10527427;28;1832;-73
2022/07/15 00:56:01;;;;;;;;;;;;;;;23.12;41.04;95927.22;10531517;28;1865;-72
2022/07/15 01:01:01;;;;;;;;;;;;;;;23.11;41.21;95924.88;10528316;28;1870;-74
2022/07/15 01:06:01;;;;;;;;;;;;;;;23.12;42.10;95918.53;10523450;28;1979;-74
2022/07/15 01:11:02;;;;;;;;;;;;;;;23.05;43.14;95907.50;10512153;28;1866;-74
2022/07/15 01:16:03;;;;;;;;;;;;;;;22.98;43.81;95907.09;10527745;28;2015;-74
2022/07/15 01:21:08;;;;;;;;;;;;;;;22.98;44.54;95909.72;10513096;28;1804;-74
2022/07/15 01:26:12;;;;;;;;;;;;;;;22.99;45.31;95911.28;10524161;28;2005;-73
2022/07/15 01:31:19;;;;;;;;;;;;;;;22.99;44.99;95927.94;10525099;28;1982;-74
2022/07/15 01:36:35;;;;;;;;;;;;;;;22.98;45.18;95934.28;10527163;28;1862;-74
2022/07/15 01:41:39;;;;;;;;;;;;;;;22.91;45.26;95931.22;10521911;28;1969;-74
2022/07/15 01:46:40;;;;;;;;;;;;;;;22.81;44.88;95914.69;10527132;28;1909;-73
2022/07/15 01:51:41;;;;;;;;;;;;;;;22.64;44.61;95925.72;10526388;28;1898;-73
2022/07/15 01:56:41;;;;;;;;;;;;;;;22.53;44.33;95930.31;10523175;28;2118;-74
2022/07/15 02:01:42;;;;;;;;;;;;;;;22.52;44.44;95931.38;10522166;28;1849;-75
2022/07/15 02:06:43;;;;;;;;;;;;;;;22.55;44.89;95917.59;10527850;28;1965;-74
2022/07/15 02:11:43;;;;;;;;;;;;;;;22.45;44.97;95930.13;10528762;28;1992;-74
2022/07/15 02:16:43;;;;;;;;;;;;;;;22.38;45.51;95929.72;10524420;28;2094;-73
2022/07/15 02:21:44;;;;;;;;;;;;;;;22.31;45.70;95932.66;10523058;28;1882;-72
2022/07/15 02:26:45;;;;;;;;;;;;;;;22.25;46.13;95933.78;10509883;28;1928;-73
2022/07/15 02:31:46;;;;;;;;;;;;;;;22.23;45.95;95935.94;10509147;28;1917;-73
2022/07/15 02:36:49;;;;;;;;;;;;;;;22.10;45.44;95933.94;10506509;28;1996;-74
2022/07/15 02:41:50;;;;;;;;;;;;;;;22.00;44.52;95936.66;10491726;28;1944;-74
2022/07/15 02:46:50;;;;;;;;;;;;;;;21.92;43.85;95931.19;10523730;28;2020;-74
2022/07/15 02:51:51;;;;;;;;;;;;;;;21.90;43.28;95947.31;10524757;28;1968;-74
2022/07/15 02:56:51;;;;;;;;;;;;;;;21.75;43.09;95947.41;10522891;28;1897;-73
2022/07/15 03:01:51;;;;;;;;;;;;;;;21.68;42.57;95952.19;10509565;28;1957;-72
2022/07/15 03:06:52;;;;;;;;;;;;;;;21.57;42.58;95958.63;10521818;28;1948;-73
2022/07/15 03:11:52;;;;;;;;;;;;;;;21.50;42.53;95953.66;10521134;28;1925;-75
2022/07/15 03:16:53;;;;;;;;;;;;;;;21.46;42.65;95965.81;10524204;28;2059;-72
2022/07/15 03:21:57;;;;;;;;;;;;;;;21.37;42.68;95971.94;10524785;28;1909;-72
2022/07/15 03:26:58;;;;;;;;;;;;;;;21.35;42.52;95966.16;10523659;28;1905;-73
2022/07/15 03:31:58;;;;;;;;;;;;;;;21.31;42.34;95970.41;10523259;28;1472;-73
2022/07/15 03:36:59;;;;;;;;;;;;;;;21.28;42.23;95968.28;10525431;28;1456;-73
2022/07/15 03:41:59;;;;;;;;;;;;;;;21.32;42.23;95978.03;10505855;28;1938;-73
2022/07/15 03:46:59;;;;;;;;;;;;;;;21.36;41.96;95988.81;10502936;28;2072;-73
2022/07/15 03:52:00;;;;;;;;;;;;;;;21.31;42.31;95975.66;10510314;28;1933;-73
2022/07/15 03:57:00;;;;;;;;;;;;;;;21.33;42.12;95970.91;10533821;28;1960;-73
2022/07/15 04:02:01;;;;;;;;;;;;;;;21.31;42.25;95986.97;10514534;28;1937;-74
2022/07/15 04:07:03;;;;;;;;;;;;;;;21.30;42.09;95985.41;10515599;28;2153;-74
2022/07/15 04:12:04;;;;;;;;;;;;;;;21.23;42.06;95987.56;10515518;28;1899;-73
2022/07/15 04:17:05;;;;;;;;;;;;;;;21.17;42.30;95982.56;10521346;28;2001;-74
2022/07/15 04:22:06;;;;;;;;;;;;;;;21.11;42.55;95983.66;10519424;28;2117;-74
2022/07/15 04:27:07;;;;;;;;;;;;;;;21.06;42.52;95985.25;10522144;28;1953;-73
2022/07/15 04:32:07;;;;;;;;;;;;;;;21.11;42.37;95992.38;10497110;28;1937;-73
2022/07/15 04:37:07;;;;;;;;;;;;;;;21.19;42.37;95999.69;10514187;28;1907;-73
2022/07/15 04:42:08;;;;;;;;;;;;;;;21.18;42.24;95990.22;10482612;28;1865;-73
2022/07/15 04:47:08;;;;;;;;;;;;;;;21.21;42.29;95987.03;10513528;28;1918;-74
2022/07/15 04:52:09;;;;;;;;;;;;;;;21.24;42.21;95977.81;10520385;28;1978;-73
2022/07/15 04:57:11;;;;;;;;;;;;;;;21.31;42.01;95983.59;10515684;28;1909;-73
2022/07/15 05:02:12;;;;;;;;;;;;;;;21.34;42.04;95981.19;10507281;28;1881;-73
2022/07/15 05:07:12;;;;;;;;;;;;;;;21.33;42.01;95981.47;10518558;28;1910;-73
2022/07/15 05:12:13;;;;;;;;;;;;;;;21.25;41.99;95992.53;10528588;28;2012;-77
2022/07/15 05:17:13;;;;;;;;;;;;;;;21.24;42.04;95993.63;10500704;28;1851;-78
2022/07/15 05:22:16;;;;;;;;;;;;;;;21.25;41.92;96003.09;10527970;28;1902;-76
2022/07/15 05:27:16;;;;;;;;;;;;;;;21.23;41.89;95999.94;10525528;28;1977;-77
2022/07/15 05:32:17;;;;;;;;;;;;;;;21.29;42.06;96009.44;10504473;28;1948;-77
2022/07/15 05:37:18;;;;;;;;;;;;;;;21.35;42.02;96003.84;10513414;28;2043;-77
2022/07/15 05:42:20;;;;;;;;;;;;;;;21.43;41.71;96005.13;10509806;28;1992;-78
2022/07/15 05:47:21;;;;;;;;;;;;;;;21.48;41.70;96023.53;10524618;28;2045;-74
2022/07/15 05:52:21;;;;;;;;;;;;;;;21.55;41.70;96019.56;10505470;28;1960;-74
2022/07/15 05:57:21;;;;;;;;;;;;;;;21.68;41.63;96023.41;10522162;28;1889;-74
2022/07/15 06:02:22;;;;;;;;;;;;;;;21.84;41.66;96027.59;10522254;28;1943;-74
2022/07/15 06:07:23;;;;;;;;;;;;;;;21.99;41.44;96035.38;10520544;28;1959;-73
2022/07/15 06:12:25;;;;;;;;;;;;;;;22.12;41.84;96041.88;10501872;28;2086;-73
2022/07/15 06:17:26;;;;;;;;;;;;;;;22.24;41.59;96039.69;10502055;28;1797;-73
2022/07/15 06:22:27;;;;;;;;;;;;;;;22.33;41.84;96035.38;10521573;28;1933;-73
2022/07/15 06:27:29;;;;;;;;;;;;;;;22.40;41.80;96041.91;10513467;28;1999;-73
2022/07/15 06:32:29;;;;;;;;;;;;;;;22.48;41.76;96037.91;10499366;28;1944;-73
2022/07/15 06:37:30;;;;;;;;;;;;;;;22.54;41.60;96039.44;10517151;28;2024;-75
2022/07/15 06:42:31;;;;;;;;;;;;;;;22.57;42.12;96044.94;10498871;28;1512;-74
2022/07/15 06:47:32;;;;;;;;;;;;;;;22.63;42.13;96045.69;10521814;28;1902;-73
2022/07/15 06:52:32;;;;;;;;;;;;;;;22.69;41.92;96051.72;10522225;28;1823;-74
2022/07/15 06:57:33;;;;;;;;;;;;;;;22.76;41.82;96060.09;10505140;28;1902;-73
2022/07/15 07:02:34;;;;;;;;;;;;;;;22.80;42.01;96056.63;10499435;28;1890;-73
2022/07/15 07:07:34;;;;;;;;;;;;;;;22.83;41.70;96058.72;10493396;28;1902;-74
2022/07/15 07:12:36;;;;;;;;;;;;;;;22.88;41.88;96063.16;10501446;28;1993;-74
2022/07/15 07:17:38;;;;;;;;;;;;;;;22.91;42.20;96062.59;10514955;28;1804;-72
2022/07/15 07:22:38;;;;;;;;;;;;;;;22.93;41.96;96060.47;10520954;28;1898;-74
2022/07/15 07:27:39;;;;;;;;;;;;;;;22.96;42.25;96067.81;10518508;28;1894;-74
2022/07/15 07:32:39;;;;;;;;;;;;;;;22.97;42.24;96067.56;10519511;28;1969;-74
2022/07/15 07:37:40;;;;;;;;;;;;;;;22.98;42.23;96077.06;10490831;28;1826;-74
2022/07/15 07:42:40;;;;;;;;;;;;;;;23.00;42.13;96072.28;10494004;28;1839;-73
2022/07/15 07:47:43;;;;;;;;;;;;;;;23.05;42.42;96068.78;10518412;28;2023;-73
2022/07/15 07:52:43;;;;;;;;;;;;;;;23.07;42.29;96061.34;10513578;28;1788;-72
2022/07/15 07:57:50;;;;;;;;;;;;;;;23.11;42.28;96063.16;10510519;28;2006;-73
2022/07/15 08:02:51;;;;;;;;;;;;;;;23.17;42.29;96061.25;10515626;28;1823;-72
2022/07/15 08:08:05;;;;;;;;;;;;;;;23.20;42.32;96063.34;10522249;28;2037;-73
2022/07/15 08:13:06;;;;;;;;;;;;;;;23.26;42.02;96056.91;10479267;28;1965;-73
2022/07/15 08:18:06;;;;;;;;;;;;;;;23.30;42.11;96063.22;10500593;28;2005;-72
2022/07/15 08:23:06;;;;;;;;;;;;;;;23.32;42.07;96037.28;10513345;28;1894;-71
2022/07/15 08:28:07;;;;;;;;;;;;;;;23.32;41.85;96032.81;10499477;28;1910;-73
2022/07/15 08:33:07;;;;;;;;;;;;;;;23.27;41.91;96051.34;10512995;28;1859;-72
2022/07/15 08:38:08;;;;;;;;;;;;;;;23.28;42.02;96042.34;10492567;28;2056;-72
2022/07/15 08:43:08;;;;;;;;;;;;;;;23.34;42.29;96032.50;10526576;28;1841;-72
2022/07/15 08:48:09;;;;;;;;;;;;;;;23.40;42.13;96036.66;10499653;28;1901;-73
2022/07/15 08:53:09;;;;;;;;;;;;;;;23.43;42.08;96038.75;10524212;28;1906;-73
2022/07/15 08:58:09;;;;;;;;;;;;;;;23.47;42.11;96026.53;10511601;28;1725;-72
2022/07/15 09:03:09;;;;;;;;;;;;;;;23.50;42.29;96025.16;10511071;28;1996;-73
2022/07/15 09:08:10;;;;;;;;;;;;;;;23.52;42.26;96029.09;10529954;28;2009;-73
2022/07/15 09:13:12;;;;;;;;;;;;;;;23.53;42.20;96028.03;10504843;28;1870;-70
2022/07/15 09:18:13;;;;;;;;;;;;;;;23.55;42.40;96025.88;10509168;28;1879;-72
2022/07/15 09:23:20;;;;;;;;;;;;;;;23.58;42.24;96027.16;10524328;28;1823;-69
2022/07/15 09:28:21;;;;;;;;;;;;;;;23.60;42.22;96033.75;10526244;28;2020;-71
2022/07/15 09:33:34;;;;;;;;;;;;;;;23.61;42.40;96035.31;10525003;28;1870;-70
2022/07/15 09:38:41;;;;;;;;;;;;;;;23.60;42.18;96031.09;10524424;28;1882;-71
2022/07/15 09:43:42;;;;;;;;;;;;;;;23.60;42.44;96019.72;10528899;28;1960;-70
2022/07/15 09:48:43;;;;;;;;;;;;;;;23.59;42.39;96028.75;10526190;28;1981;-70
2022/07/15 09:53:44;;;;;;;;;;;;;;;23.61;42.33;96029.25;10506644;28;1908;-71
2022/07/15 09:58:44;;;;;;;;;;;;;;;23.58;42.16;96020.00;10527048;28;1888;-71
2022/07/15 10:03:44;;;;;;;;;;;;;;;23.59;42.47;96008.38;10525225;28;1995;-71
2022/07/15 10:08:45;;;;;;;;;;;;;;;23.63;42.58;96006.72;10539058;28;1968;-71
2022/07/15 10:14:04;;;;;;;;;;;;;;;23.61;41.76;96008.06;10508645;28;1882;-70
2022/07/15 10:19:08;;;;;;;;;;;;;;;23.59;41.29;96008.38;10491488;28;1791;-72
2022/07/15 10:24:20;;;;;;;;;;;;;;;23.61;41.38;96000.94;10511394;28;1858;-71
2022/07/15 10:29:21;;;;;;;;;;;;;;;23.63;41.27;96005.91;10522473;28;1957;-71
2022/07/15 10:34:23;;;;;;;;;;;;;;;23.68;41.83;96003.97;10527271;28;1965;-72
2022/07/15 10:39:28;;;;;;;;;;;;;;;23.77;42.90;95993.53;10506515;28;1903;-72
2022/07/15 10:44:29;;;;;;;;;;;;;;;23.84;43.54;96000.06;10510656;28;1777;-76
2022/07/15 10:49:29;;;;;;;;;;;;;;;23.90;44.12;95996.25;10526963;28;2021;-75
2022/07/15 10:54:33;;;;;;;;;;;;;;;23.91;44.16;95995.16;10512450;28;2046;-71
2022/07/15 10:59:36;;;;;;;;;;;;;;;23.92;43.65;95999.41;10520909;28;1815;-76
2022/07/15 11:04:37;;;;;;;;;;;;;;;23.94;44.09;95994.59;10516128;28;1837;-71
2022/07/15 11:09:46;;;;;;;;;;;;;;;23.95;44.98;95988.22;10520790;28;1976;-71
2022/07/15 11:14:58;;;;;;;;;;;;;;;23.90;43.17;95976.94;10518228;28;1823;-72
2022/07/15 11:20:04;;;;;;;;;;;;;;;23.86;43.58;95978.59;10526705;28;2054;-71
2022/07/15 11:25:05;;;;;;;;;;;;;;;23.86;42.85;95978.59;10502416;28;2115;-72
2022/07/15 11:30:07;;;;;;;;;;;;;;;23.86;42.87;95962.69;10499198;28;2226;-72
2022/07/15 11:35:07;;;;;;;;;;;;;;;23.88;43.61;95958.69;10522281;28;1803;-72
2022/07/15 11:40:09;;;;;;;;;;;;;;;23.89;43.14;95951.50;10519150;28;1820;-72
2022/07/15 11:45:09;;;;;;;;;;;;;;;23.89;43.45;95941.72;10507059;28;1894;-73
2022/07/15 11:50:09;;;;;;;;;;;;;;;23.90;43.13;95942.50;10483126;28;1910;-72
2022/07/15 11:55:10;;;;;;;;;;;;;;;23.90;42.81;95938.00;10503215;28;1826;-72
2022/07/15 12:00:11;;;;;;;;;;;;;;;23.91;43.13;95947.50;10518312;28;1855;-72
2022/07/15 12:05:11;;;;;;;;;;;;;;;23.93;43.14;95941.91;10518560;28;1840;-73
2022/07/15 12:10:12;;;;;;;;;;;;;;;23.92;43.23;95933.22;10517568;28;1910;-73
2022/07/15 12:15:12;;;;;;;;;;;;;;;23.94;43.22;95938.22;10489118;28;2243;-72
2022/07/15 12:20:13;;;;;;;;;;;;;;;23.96;43.13;95926.25;10520022;28;1928;-73
2022/07/15 12:25:20;;;;;;;;;;;;;;;23.97;43.36;95917.22;10522963;28;1966;-74
2022/07/15 12:30:28;;;;;;;;;;;;;;;23.97;43.70;95917.22;10496973;28;1948;-72
2022/07/15 12:35:28;;;;;;;;;;;;;;;23.99;43.36;95917.72;10505848;28;1823;-72
2022/07/15 12:40:29;;;;;;;;;;;;;;;23.96;42.42;95907.72;10538932;28;1440;-73
2022/07/15 12:45:39;;;;;;;;;;;;;;;23.98;42.94;95916.16;10524125;28;1989;-72
2022/07/15 12:50:42;;;;;;;;;;;;;;;23.97;41.85;95908.47;10520099;28;1915;-72
2022/07/15 12:55:44;;;;;;;;;;;;;;;23.94;41.66;95912.53;10524776;28;1809;-73
2022/07/15 13:00:45;;;;;;;;;;;;;;;23.97;42.10;95903.97;10519123;28;1795;-73
2022/07/15 13:05:47;;;;;;;;;;;;;;;23.99;42.08;95898.38;10506218;28;1898;-73
2022/07/15 13:10:48;;;;;;;;;;;;;;;23.97;41.99;95900.53;10503207;28;1788;-73
2022/07/15 13:15:49;;;;;;;;;;;;;;;23.99;42.33;95896.53;10524157;28;1792;-73
2022/07/15 13:20:50;;;;;;;;;;;;;;;24.02;42.31;95903.13;10521191;28;1993;-72
2022/07/15 13:25:52;;;;;;;;;;;;;;;24.01;41.52;95897.03;10521770;28;1959;-71
2022/07/15 13:30:53;;;;;;;;;;;;;;;24.02;41.61;95889.88;10526840;28;1788;-73
2022/07/15 13:35:57;;;;;;;;;;;;;;;24.04;41.61;95885.09;10529106;28;1930;-73
2022/07/15 13:40:57;;;;;;;;;;;;;;;24.06;41.46;95886.38;10530773;28;1880;-72
2022/07/15 13:45:57;;;;;;;;;;;;;;;24.04;41.16;95880.59;10517128;28;1930;-73
2022/07/15 13:56:17;;;;;;;;;;;;;;;24.04;41.17;95882.44;10525029;28;2038;-73
2022/07/15 14:01:18;;;;;;;;;;;;;;;24.03;40.57;95881.66;10524177;28;1977;-73
2022/07/15 14:06:18;;;;;;;;;;;;;;;24.04;41.04;95880.59;10528329;28;1910;-73
2022/07/15 14:11:18;;;;;;;;;;;;;;;24.06;41.22;95886.38;10516386;28;1834;-71
2022/07/15 14:16:19;;;;;;;;;;;;;;;24.08;41.36;95876.28;10523396;28;2109;-72
2022/07/15 14:21:19;;;;;;;;;;;;;;;24.09;41.12;95877.84;10508030;28;1836;-72
2022/07/15 14:26:19;;;;;;;;;;;;;;;24.08;41.15;95873.63;10506491;28;1914;-74
2022/07/15 14:31:20;;;;;;;;;;;;;;;24.09;41.39;95869.91;10518770;28;1943;-72
2022/07/15 14:36:20;;;;;;;;;;;;;;;24.10;41.28;95860.88;10524539;28;1884;-71
2022/07/15 14:41:20;;;;;;;;;;;;;;;24.10;41.04;95866.19;10490523;28;2009;-72
2022/07/15 14:46:21;;;;;;;;;;;;;;;24.11;41.04;95866.97;10524655;28;1992;-73
2022/07/15 14:51:21;;;;;;;;;;;;;;;24.11;41.34;95865.09;10523549;28;1871;-74
2022/07/15 14:56:21;;;;;;;;;;;;;;;24.11;40.98;95854.50;10502786;28;1832;-71
2022/07/15 15:01:22;;;;;;;;;;;;;;;24.13;41.10;95856.88;10521882;28;1874;-71
2022/07/15 15:06:22;;;;;;;;;;;;;;;24.14;41.42;95863.72;10518223;28;2007;-72
2022/07/15 15:11:22;;;;;;;;;;;;;;;24.14;41.18;95853.94;10512208;28;1897;-73
2022/07/15 15:16:23;;;;;;;;;;;;;;;24.14;40.65;95859.22;10516709;28;1935;-73
2022/07/15 15:21:23;;;;;;;;;;;;;;;24.13;40.89;95855.00;10515974;28;1965;-75
2022/07/15 15:26:27;;;;;;;;;;;;;;;24.16;40.84;95859.72;10520952;28;1977;-73
2022/07/15 15:31:27;;;;;;;;;;;;;;;24.18;41.14;95862.84;10520409;28;1436;-73
2022/07/15 15:36:28;;;;;;;;;;;;;;;24.20;41.64;95852.75;10527350;28;1536;-73
2022/07/15 15:41:28;;;;;;;;;;;;;;;24.22;42.46;95855.09;10527722;28;1456;-72
2022/07/15 15:46:30;;;;;;;;;;;;;;;24.23;42.57;95856.69;10522373;28;1918;-72
2022/07/15 15:51:30;;;;;;;;;;;;;;;24.23;41.67;95851.38;10523882;28;1913;-72
2022/07/15 15:56:30;;;;;;;;;;;;;;;24.22;42.09;95858.53;10505537;28;2016;-73
2022/07/15 16:01:31;;;;;;;;;;;;;;;24.23;42.00;95854.78;10522617;28;1815;-73
2022/07/15 16:06:31;;;;;;;;;;;;;;;24.23;41.69;95846.09;10519643;28;2004;-73
2022/07/15 16:11:32;;;;;;;;;;;;;;;24.22;41.91;95839.22;10538465;28;1832;-72
2022/07/15 16:16:34;;;;;;;;;;;;;;;24.22;41.67;95845.28;10515410;28;1805;-71
2022/07/15 16:26:53;;;;;;;;;;;;;;;24.22;41.64;95832.06;10517288;28;2016;-71
2022/07/15 16:31:54;;;;;;;;;;;;;;;24.21;41.42;95835.75;10489408;28;1796;-71
2022/07/15 16:36:54;;;;;;;;;;;;;;;24.20;41.16;95836.06;10521833;28;1976;-71
2022/07/15 16:41:54;;;;;;;;;;;;;;;24.21;41.27;95833.13;10519622;28;1958;-72
2022/07/15 16:46:55;;;;;;;;;;;;;;;24.19;41.14;95835.28;10490746;28;1988;-73
2022/07/15 16:51:58;;;;;;;;;;;;;;;24.22;41.00;95825.97;10520751;28;1817;-71
2022/07/15 16:56:59;;;;;;;;;;;;;;;24.19;40.60;95829.97;10522984;28;1843;-72
2022/07/15 17:01:59;;;;;;;;;;;;;;;24.19;40.88;95832.63;10524941;28;2004;-71
2022/07/15 17:06:59;;;;;;;;;;;;;;;24.19;40.34;95837.91;10510755;28;2029;-72
2022/07/15 17:12:00;;;;;;;;;;;;;;;24.17;39.95;95832.13;10506683;28;1817;-70
2022/07/15 17:17:00;;;;;;;;;;;;;;;24.17;40.41;95837.44;10530944;28;1862;-72
2022/07/15 17:22:03;;;;;;;;;;;;;;;24.19;40.48;95840.56;10525981;28;1858;-72
2022/07/15 17:27:05;;;;;;;;;;;;;;;24.18;40.13;95833.72;10505791;28;1954;-72
2022/07/15 17:32:05;;;;;;;;;;;;;;;24.19;40.11;95835.28;10524924;28;1851;-72
2022/07/15 17:37:06;;;;;;;;;;;;;;;24.18;39.72;95849.63;10537235;28;1827;-73
2022/07/15 17:42:07;;;;;;;;;;;;;;;24.17;39.66;95841.97;10508901;28;1957;-72
2022/07/15 17:47:08;;;;;;;;;;;;;;;24.18;39.60;95848.81;10527883;28;1945;-72
2022/07/15 17:52:09;;;;;;;;;;;;;;;24.17;39.77;95852.56;10528391;28;1870;-72
2022/07/15 17:57:09;;;;;;;;;;;;;;;24.20;39.71;95857.25;10509921;28;2028;-72
2022/07/15 18:02:10;;;;;;;;;;;;;;;24.16;39.34;95850.97;10523733;28;1999;-73
2022/07/15 18:07:10;;;;;;;;;;;;;;;24.17;39.11;95857.84;10530099;28;1906;-72
2022/07/15 18:12:11;;;;;;;;;;;;;;;24.15;38.88;95849.41;10522298;28;1819;-73
2022/07/15 18:17:11;;;;;;;;;;;;;;;24.14;38.63;95859.22;10523901;28;1847;-72
2022/07/15 18:22:11;;;;;;;;;;;;;;;24.13;39.03;95857.63;10526836;28;1945;-72
2022/07/15 18:27:12;;;;;;;;;;;;;;;24.12;38.45;95853.44;10522334;28;1913;-73
2022/07/15 18:32:13;;;;;;;;;;;;;;;24.12;38.58;95869.31;10522219;28;2028;-72
2022/07/15 18:37:14;;;;;;;;;;;;;;;24.15;39.09;95860.78;10506461;28;1815;-72
2022/07/15 18:42:15;;;;;;;;;;;;;;;24.18;39.26;95864.72;10526824;28;1834;-72
2022/07/15 18:47:15;;;;;;;;;;;;;;;24.16;38.65;95861.56;10528255;28;1901;-73
2022/07/15 18:52:15;;;;;;;;;;;;;;;24.17;39.01;95863.91;10503514;28;1891;-70
2022/07/15 18:57:16;;;;;;;;;;;;;;;24.17;39.12;95876.41;10519778;28;2275;-70
2022/07/15 19:02:16;;;;;;;;;;;;;;;24.16;38.85;95875.59;10524210;28;1944;-70
2022/07/15 19:07:17;;;;;;;;;;;;;;;24.17;39.28;95882.47;10520114;28;1958;-71
2022/07/15 19:12:17;;;;;;;;;;;;;;;24.16;38.57;95880.91;10516911;28;1884;-71
2022/07/15 19:17:18;;;;;;;;;;;;;;;24.18;38.41;95880.59;10519384;28;2048;-73
2022/07/15 19:22:18;;;;;;;;;;;;;;;24.16;35.37;95883.56;10494943;28;1886;-74
2022/07/15 19:27:19;;;;;;;;;;;;;;;24.04;34.19;95888.53;10519970;28;1938;-72
2022/07/15 19:32:19;;;;;;;;;;;;;;;23.95;33.26;95892.09;10520650;28;1854;-73
2022/07/15 19:37:20;;;;;;;;;;;;;;;23.87;32.98;95901.50;10511990;28;2005;-73
2022/07/15 19:42:20;;;;;;;;;;;;;;;23.87;33.04;95906.00;10494187;28;1997;-73
2022/07/15 19:47:22;;;;;;;;;;;;;;;23.86;32.91;95905.25;10519811;28;1946;-72
2022/07/15 19:52:23;;;;;;;;;;;;;;;23.78;32.31;95908.53;10516278;28;1787;-73
2022/07/15 19:57:24;;;;;;;;;;;;;;;23.71;31.98;95917.94;10491364;28;1900;-74
2022/07/15 20:02:24;;;;;;;;;;;;;;;23.73;32.66;95916.56;10513241;28;1947;-72
2022/07/15 20:07:25;;;;;;;;;;;;;;;23.68;32.13;95921.16;10495770;28;1973;-72
2022/07/15 20:12:26;;;;;;;;;;;;;;;23.66;32.23;95923.31;10509244;28;1921;-71
2022/07/15 20:17:26;;;;;;;;;;;;;;;23.70;32.12;95932.25;10499016;28;1855;-73
2022/07/15 20:22:27;;;;;;;;;;;;;;;23.70;32.64;95929.59;10498224;28;1992;-73
2022/07/15 20:27:27;;;;;;;;;;;;;;;23.76;33.28;95937.16;10508434;28;1883;-74
2022/07/15 20:32:28;;;;;;;;;;;;;;;23.82;33.35;95935.22;10515078;28;1963;-73
2022/07/15 20:37:29;;;;;;;;;;;;;;;23.86;33.43;95941.53;10507177;28;1836;-74
2022/07/15 20:42:29;;;;;;;;;;;;;;;23.90;33.27;95943.31;10508055;28;1797;-74
2022/07/15 20:47:31;;;;;;;;;;;;;;;23.90;33.34;95940.66;10510070;28;1934;-74
2022/07/15 20:52:32;;;;;;;;;;;;;;;23.91;33.28;95959.94;10526897;28;1915;-73
2022/07/15 20:57:32;;;;;;;;;;;;;;;23.87;33.00;95953.66;10525036;28;1888;-74
2022/07/15 21:02:35;;;;;;;;;;;;;;;23.81;32.59;95945.03;10524181;28;1974;-74
2022/07/15 21:07:35;;;;;;;;;;;;;;;23.80;32.65;95945.31;10508044;28;1973;-72
2022/07/15 21:12:37;;;;;;;;;;;;;;;23.76;32.74;95946.97;10507912;28;1788;-73
2022/07/15 21:17:37;;;;;;;;;;;;;;;23.72;32.53;95956.56;10525077;28;1583;-74
2022/07/15 21:22:37;;;;;;;;;;;;;;;23.69;32.63;95963.22;10512270;28;1941;-74
2022/07/15 21:27:38;;;;;;;;;;;;;;;23.66;32.45;95973.59;10506414;28;1913;-73
2022/07/15 21:32:39;;;;;;;;;;;;;;;23.63;32.54;95977.59;10505908;28;1758;-74
2022/07/15 21:37:39;;;;;;;;;;;;;;;23.62;32.65;95977.91;10512506;28;1829;-72
2022/07/15 21:42:40;;;;;;;;;;;;;;;23.58;32.45;95977.66;10505524;28;1857;-74
2022/07/15 21:47:41;;;;;;;;;;;;;;;23.58;32.31;95976.88;10522020;28;1976;-74
2022/07/15 21:52:41;;;;;;;;;;;;;;;23.58;32.53;95977.66;10524440;28;1807;-73
2022/07/15 21:57:42;;;;;;;;;;;;;;;23.57;32.83;95976.09;10519636;28;1812;-73
2022/07/15 22:02:42;;;;;;;;;;;;;;;23.53;32.69;95982.25;10523406;28;1829;-73
2022/07/15 22:07:43;;;;;;;;;;;;;;;23.50;32.79;95980.97;10521922;28;1991;-73
2022/07/15 22:12:43;;;;;;;;;;;;;;;23.47;32.60;95986.03;10521715;28;1868;-73
2022/07/15 22:17:44;;;;;;;;;;;;;;;23.45;32.60;95987.09;10520358;28;1941;-73
2022/07/15 22:22:45;;;;;;;;;;;;;;;23.42;32.62;95989.53;10503576;28;1774;-72
2022/07/15 22:27:45;;;;;;;;;;;;;;;23.39;32.57;95988.25;10521673;28;1909;-72
2022/07/15 22:32:46;;;;;;;;;;;;;;;23.34;32.77;95992.84;10500930;28;1623;-74
2022/07/15 22:37:47;;;;;;;;;;;;;;;23.30;32.89;95997.09;10521419;28;1930;-72
2022/07/15 22:42:47;;;;;;;;;;;;;;;23.28;32.86;96010.59;10515774;28;1934;-73
2022/07/15 22:47:48;;;;;;;;;;;;;;;23.27;32.87;96005.56;10504887;28;1905;-73
2022/07/15 22:52:48;;;;;;;;;;;;;;;23.24;32.73;95995.56;10516659;28;1777;-73
2022/07/15 22:57:49;;;;;;;;;;;;;;;23.26;33.13;95994.22;10499179;28;1851;-74
2022/07/15 23:02:51;;;;;;;;;;;;;;;23.28;32.99;96007.16;10521795;28;1825;-74
2022/07/15 23:07:52;;;;;;;;;;;;;;;23.24;32.98;96008.81;10517570;28;2292;-73
2022/07/15 23:12:53;;;;;;;;;;;;;;;23.23;33.16;96017.78;10515365;28;1815;-73
2022/07/15 23:17:53;;;;;;;;;;;;;;;23.23;33.19;96009.84;10502886;28;1911;-73
2022/07/15 23:22:54;;;;;;;;;;;;;;;23.24;33.30;96008.81;10505983;28;1866;-73
2022/07/15 23:27:55;;;;;;;;;;;;;;;23.18;33.09;96016.03;10503164;28;1921;-73
2022/07/15 23:32:56;;;;;;;;;;;;;;;23.10;33.10;96015.84;10518757;28;1745;-73
2022/07/15 23:37:57;;;;;;;;;;;;;;;23.10;33.28;96018.50;10519548;28;1787;-73
2022/07/15 23:42:58;;;;;;;;;;;;;;;23.08;33.37;96013.47;10518618;28;2006;-73
2022/07/15 23:47:58;;;;;;;;;;;;;;;23.08;33.30;96010.06;10513214;28;1909;-73
2022/07/15 23:52:58;;;;;;;;;;;;;;;23.06;33.28;96012.97;10507463;28;1817;-71
2022/07/15 23:57:59;;;;;;;;;;;;;;;23.10;33.29;96010.56;10535379;28;1851;-74
